sensor_id;sensor_type;location;lat;lon;timestamp;temperature;humidity
30764;DHT22;17497;51.476;7.770;2023-03-14T00:00:09;10.80;99.90
30764;DHT22;17497;51.476;7.770;2023-03-14T00:02:37;10.80;99.90
30764;DHT22;17497;51.476;7.770;2023-03-14T00:05:04;10.80;99.90
30764;DHT22;17497;51.476;7.770;2023-03-14T00:07:33;10.80;99.90
30764;DHT22;17497;51.476;7.770;2023-03-14T00:10:05;10.80;99.90
30764;DHT22;17497;51.476;7.770;2023-03-14T00:12:32;10.70;99.90
30764;DHT22;17497;51.476;7.770;2023-03-14T00:14:59;10.80;99.90
30764;DHT22;17497;51.476;7.770;2023-03-14T00:17:30;10.80;99.90
30764;DHT22;17497;51.476;7.770;2023-03-14T00:19:56;10.70;99.90
30764;DHT22;17497;51.476;7.770;2023-03-14T00:22:23;10.80;99.90
30764;DHT22;17497;51.476;7.770;2023-03-14T00:24:50;10.80;99.90
30764;DHT22;17497;51.476;7.770;2023-03-14T00:27:17;10.80;99.90
30764;DHT22;17497;51.476;7.770;2023-03-14T00:29:44;10.80;99.90
30764;DHT22;17497;51.476;7.770;2023-03-14T00:32:10;10.80;99.90
30764;DHT22;17497;51.476;7.770;2023-03-14T00:34:37;10.80;99.90
30764;DHT22;17497;51.476;7.770;2023-03-14T00:37:05;10.80;99.90
30764;DHT22;17497;51.476;7.770;2023-03-14T00:39:31;10.80;99.90
30764;DHT22;17497;51.476;7.770;2023-03-14T00:41:58;10.70;99.90
30764;DHT22;17497;51.476;7.770;2023-03-14T00:44:25;10.70;99.90
30764;DHT22;17497;51.476;7.770;2023-03-14T00:46:51;10.70;99.90
30764;DHT22;17497;51.476;7.770;2023-03-14T00:49:18;10.80;99.90
30764;DHT22;17497;51.476;7.770;2023-03-14T00:51:45;10.80;99.90
30764;DHT22;17497;51.476;7.770;2023-03-14T00:54:12;10.80;99.90
30764;DHT22;17497;51.476;7.770;2023-03-14T00:56:39;10.80;99.90
30764;DHT22;17497;51.476;7.770;2023-03-14T00:59:05;10.80;99.90
30764;DHT22;17497;51.476;7.770;2023-03-14T01:01:32;10.80;99.90
30764;DHT22;17497;51.476;7.770;2023-03-14T01:03:59;10.90;99.90
30764;DHT22;17497;51.476;7.770;2023-03-14T01:06:27;10.90;99.90
30764;DHT22;17497;51.476;7.770;2023-03-14T01:08:54;10.90;99.90
30764;DHT22;17497;51.476;7.770;2023-03-14T01:11:22;11.00;99.90
30764;DHT22;17497;51.476;7.770;2023-03-14T01:13:50;11.00;99.90
30764;DHT22;17497;51.476;7.770;2023-03-14T01:16:17;11.00;99.90
30764;DHT22;17497;51.476;7.770;2023-03-14T01:18:44;11.10;99.90
30764;DHT22;17497;51.476;7.770;2023-03-14T01:21:13;11.10;99.90
30764;DHT22;17497;51.476;7.770;2023-03-14T01:23:40;11.10;99.90
30764;DHT22;17497;51.476;7.770;2023-03-14T01:26:13;11.10;99.90
30764;DHT22;17497;51.476;7.770;2023-03-14T01:28:40;11.10;99.90
30764;DHT22;17497;51.476;7.770;2023-03-14T01:31:08;11.10;99.90
30764;DHT22;17497;51.476;7.770;2023-03-14T01:33:35;11.00;99.90
30764;DHT22;17497;51.476;7.770;2023-03-14T01:36:03;10.90;99.90
30764;DHT22;17497;51.476;7.770;2023-03-14T01:38:30;10.90;99.90
30764;DHT22;17497;51.476;7.770;2023-03-14T01:40:59;10.90;99.90
30764;DHT22;17497;51.476;7.770;2023-03-14T01:43:26;10.90;99.90
30764;DHT22;17497;51.476;7.770;2023-03-14T01:51:18;9.30;99.90
30764;DHT22;17497;51.476;7.770;2023-03-14T01:53:47;8.40;99.90
30764;DHT22;17497;51.476;7.770;2023-03-14T01:56:15;8.10;99.90
30764;DHT22;17497;51.476;7.770;2023-03-14T01:58:43;8.20;99.90
30764;DHT22;17497;51.476;7.770;2023-03-14T02:01:10;8.20;99.90
30764;DHT22;17497;51.476;7.770;2023-03-14T02:03:38;8.30;99.90
30764;DHT22;17497;51.476;7.770;2023-03-14T02:06:08;8.20;99.90
30764;DHT22;17497;51.476;7.770;2023-03-14T02:08:35;8.20;99.90
30764;DHT22;17497;51.476;7.770;2023-03-14T02:11:04;8.10;99.90
30764;DHT22;17497;51.476;7.770;2023-03-14T02:13:31;8.10;99.90
30764;DHT22;17497;51.476;7.770;2023-03-14T02:15:58;8.00;99.90
30764;DHT22;17497;51.476;7.770;2023-03-14T02:18:24;8.00;99.90
30764;DHT22;17497;51.476;7.770;2023-03-14T02:23:43;8.00;99.90
30764;DHT22;17497;51.476;7.770;2023-03-14T02:26:15;8.00;99.90
30764;DHT22;17497;51.476;7.770;2023-03-14T02:28:45;8.00;99.90
30764;DHT22;17497;51.476;7.770;2023-03-14T02:31:11;8.00;99.90
30764;DHT22;17497;51.476;7.770;2023-03-14T02:33:38;8.00;99.90
30764;DHT22;17497;51.476;7.770;2023-03-14T02:36:07;8.00;99.90
30764;DHT22;17497;51.476;7.770;2023-03-14T02:38:43;8.00;99.90
30764;DHT22;17497;51.476;7.770;2023-03-14T02:41:12;8.00;99.90
30764;DHT22;17497;51.476;7.770;2023-03-14T02:43:38;8.00;99.90
30764;DHT22;17497;51.476;7.770;2023-03-14T02:46:05;8.00;99.90
30764;DHT22;17497;51.476;7.770;2023-03-14T02:48:35;8.00;99.90
30764;DHT22;17497;51.476;7.770;2023-03-14T02:51:03;8.00;99.90
30764;DHT22;17497;51.476;7.770;2023-03-14T02:53:32;8.00;99.90
30764;DHT22;17497;51.476;7.770;2023-03-14T02:55:59;8.00;99.90
30764;DHT22;17497;51.476;7.770;2023-03-14T02:58:27;8.00;99.90
30764;DHT22;17497;51.476;7.770;2023-03-14T03:00:54;8.00;99.90
30764;DHT22;17497;51.476;7.770;2023-03-14T03:03:20;8.10;99.90
30764;DHT22;17497;51.476;7.770;2023-03-14T03:05:51;8.10;99.90
30764;DHT22;17497;51.476;7.770;2023-03-14T03:08:18;8.10;99.90
30764;DHT22;17497;51.476;7.770;2023-03-14T03:10:46;8.20;99.90
30764;DHT22;17497;51.476;7.770;2023-03-14T03:13:13;8.20;99.90
30764;DHT22;17497;51.476;7.770;2023-03-14T03:15:41;8.20;99.90
30764;DHT22;17497;51.476;7.770;2023-03-14T03:18:07;8.20;99.90
30764;DHT22;17497;51.476;7.770;2023-03-14T03:20:34;8.20;99.90
30764;DHT22;17497;51.476;7.770;2023-03-14T03:23:01;8.30;99.90
30764;DHT22;17497;51.476;7.770;2023-03-14T03:25:28;8.20;99.90
30764;DHT22;17497;51.476;7.770;2023-03-14T03:27:55;8.20;99.90
30764;DHT22;17497;51.476;7.770;2023-03-14T03:30:21;8.20;99.90
30764;DHT22;17497;51.476;7.770;2023-03-14T03:32:48;8.30;99.90
30764;DHT22;17497;51.476;7.770;2023-03-14T03:35:15;8.30;99.90
30764;DHT22;17497;51.476;7.770;2023-03-14T03:37:41;8.40;99.90
30764;DHT22;17497;51.476;7.770;2023-03-14T03:40:08;8.40;99.90
30764;DHT22;17497;51.476;7.770;2023-03-14T03:42:35;8.40;99.90
30764;DHT22;17497;51.476;7.770;2023-03-14T03:45:04;8.40;99.90
30764;DHT22;17497;51.476;7.770;2023-03-14T03:47:31;8.50;99.90
30764;DHT22;17497;51.476;7.770;2023-03-14T03:49:57;8.50;99.90
30764;DHT22;17497;51.476;7.770;2023-03-14T03:52:24;8.50;99.90
30764;DHT22;17497;51.476;7.770;2023-03-14T03:54:52;8.50;99.90
30764;DHT22;17497;51.476;7.770;2023-03-14T03:57:19;8.50;99.90
30764;DHT22;17497;51.476;7.770;2023-03-14T03:59:46;8.50;99.90
30764;DHT22;17497;51.476;7.770;2023-03-14T04:02:13;8.50;99.90
30764;DHT22;17497;51.476;7.770;2023-03-14T04:04:40;8.50;99.90
30764;DHT22;17497;51.476;7.770;2023-03-14T04:07:07;8.50;99.90
30764;DHT22;17497;51.476;7.770;2023-03-14T04:09:33;8.50;99.90
30764;DHT22;17497;51.476;7.770;2023-03-14T04:12:00;8.60;99.90
30764;DHT22;17497;51.476;7.770;2023-03-14T04:14:28;8.60;99.90
30764;DHT22;17497;51.476;7.770;2023-03-14T04:16:55;8.50;99.90
30764;DHT22;17497;51.476;7.770;2023-03-14T04:19:21;8.60;99.90
30764;DHT22;17497;51.476;7.770;2023-03-14T04:21:48;8.60;99.90
30764;DHT22;17497;51.476;7.770;2023-03-14T04:24:15;8.50;99.90
30764;DHT22;17497;51.476;7.770;2023-03-14T04:26:42;8.50;99.90
30764;DHT22;17497;51.476;7.770;2023-03-14T04:29:08;8.50;99.90
30764;DHT22;17497;51.476;7.770;2023-03-14T04:31:37;8.40;99.90
30764;DHT22;17497;51.476;7.770;2023-03-14T04:34:04;8.40;99.90
30764;DHT22;17497;51.476;7.770;2023-03-14T04:36:30;8.30;99.90
30764;DHT22;17497;51.476;7.770;2023-03-14T04:38:57;8.30;99.90
30764;DHT22;17497;51.476;7.770;2023-03-14T04:41:24;8.20;99.90
30764;DHT22;17497;51.476;7.770;2023-03-14T04:43:50;8.20;99.90
30764;DHT22;17497;51.476;7.770;2023-03-14T04:46:17;8.10;99.90
30764;DHT22;17497;51.476;7.770;2023-03-14T04:48:44;8.10;99.90
30764;DHT22;17497;51.476;7.770;2023-03-14T04:51:11;8.00;99.90
30764;DHT22;17497;51.476;7.770;2023-03-14T04:53:37;8.00;99.90
30764;DHT22;17497;51.476;7.770;2023-03-14T04:56:04;8.00;99.90
30764;DHT22;17497;51.476;7.770;2023-03-14T04:58:31;7.90;99.90
30764;DHT22;17497;51.476;7.770;2023-03-14T05:01:04;8.00;99.90
30764;DHT22;17497;51.476;7.770;2023-03-14T05:03:31;7.90;99.90
30764;DHT22;17497;51.476;7.770;2023-03-14T05:05:57;7.90;99.90
30764;DHT22;17497;51.476;7.770;2023-03-14T05:08:25;7.90;99.90
30764;DHT22;17497;51.476;7.770;2023-03-14T05:10:55;8.00;99.90
30764;DHT22;17497;51.476;7.770;2023-03-14T05:13:22;8.00;99.90
30764;DHT22;17497;51.476;7.770;2023-03-14T05:15:49;8.00;99.90
30764;DHT22;17497;51.476;7.770;2023-03-14T05:18:17;8.00;99.90
30764;DHT22;17497;51.476;7.770;2023-03-14T05:20:44;8.00;99.90
30764;DHT22;17497;51.476;7.770;2023-03-14T05:23:11;8.10;99.90
30764;DHT22;17497;51.476;7.770;2023-03-14T05:25:37;8.10;99.90
30764;DHT22;17497;51.476;7.770;2023-03-14T05:28:04;8.20;99.90
30764;DHT22;17497;51.476;7.770;2023-03-14T05:30:31;8.10;99.90
30764;DHT22;17497;51.476;7.770;2023-03-14T05:32:58;8.10;99.90
30764;DHT22;17497;51.476;7.770;2023-03-14T05:35:25;8.20;99.90
30764;DHT22;17497;51.476;7.770;2023-03-14T05:37:52;8.20;99.90
30764;DHT22;17497;51.476;7.770;2023-03-14T05:40:18;8.30;99.90
30764;DHT22;17497;51.476;7.770;2023-03-14T05:42:45;8.30;99.90
30764;DHT22;17497;51.476;7.770;2023-03-14T05:45:12;8.30;99.90
30764;DHT22;17497;51.476;7.770;2023-03-14T05:47:38;8.30;99.90
30764;DHT22;17497;51.476;7.770;2023-03-14T05:50:05;8.40;99.90
30764;DHT22;17497;51.476;7.770;2023-03-14T05:52:32;8.40;99.90
30764;DHT22;17497;51.476;7.770;2023-03-14T05:54:59;8.40;99.90
30764;DHT22;17497;51.476;7.770;2023-03-14T05:57:25;8.40;99.90
30764;DHT22;17497;51.476;7.770;2023-03-14T05:59:52;8.40;99.90
30764;DHT22;17497;51.476;7.770;2023-03-14T06:02:19;8.50;99.90
30764;DHT22;17497;51.476;7.770;2023-03-14T06:04:45;8.50;99.90
30764;DHT22;17497;51.476;7.770;2023-03-14T06:07:12;8.50;99.90
30764;DHT22;17497;51.476;7.770;2023-03-14T06:09:39;8.50;99.90
30764;DHT22;17497;51.476;7.770;2023-03-14T06:12:06;8.50;99.90
30764;DHT22;17497;51.476;7.770;2023-03-14T06:14:33;8.50;99.90
30764;DHT22;17497;51.476;7.770;2023-03-14T06:16:59;8.60;99.90
30764;DHT22;17497;51.476;7.770;2023-03-14T06:19:26;8.60;99.90
30764;DHT22;17497;51.476;7.770;2023-03-14T06:21:53;8.70;99.90
30764;DHT22;17497;51.476;7.770;2023-03-14T06:24:19;8.70;99.90
30764;DHT22;17497;51.476;7.770;2023-03-14T06:26:46;8.70;99.90
30764;DHT22;17497;51.476;7.770;2023-03-14T06:29:13;8.60;99.90
30764;DHT22;17497;51.476;7.770;2023-03-14T06:31:40;8.60;99.90
30764;DHT22;17497;51.476;7.770;2023-03-14T06:34:07;8.60;99.90
30764;DHT22;17497;51.476;7.770;2023-03-14T06:36:34;8.60;99.90
30764;DHT22;17497;51.476;7.770;2023-03-14T06:39:00;8.70;99.90
30764;DHT22;17497;51.476;7.770;2023-03-14T06:41:27;8.70;99.90
30764;DHT22;17497;51.476;7.770;2023-03-14T06:43:54;8.60;99.90
30764;DHT22;17497;51.476;7.770;2023-03-14T06:46:22;8.70;99.90
30764;DHT22;17497;51.476;7.770;2023-03-14T06:48:49;8.70;99.90
30764;DHT22;17497;51.476;7.770;2023-03-14T06:51:16;8.80;99.90
30764;DHT22;17497;51.476;7.770;2023-03-14T06:53:43;8.80;99.90
30764;DHT22;17497;51.476;7.770;2023-03-14T06:56:10;8.80;99.90
30764;DHT22;17497;51.476;7.770;2023-03-14T06:58:36;8.90;99.90
30764;DHT22;17497;51.476;7.770;2023-03-14T07:01:03;8.90;99.90
30764;DHT22;17497;51.476;7.770;2023-03-14T07:03:30;9.00;99.90
30764;DHT22;17497;51.476;7.770;2023-03-14T07:05:57;9.00;99.90
30764;DHT22;17497;51.476;7.770;2023-03-14T07:08:23;9.00;99.90
30764;DHT22;17497;51.476;7.770;2023-03-14T07:10:50;9.00;99.90
30764;DHT22;17497;51.476;7.770;2023-03-14T07:13:17;9.10;99.90
30764;DHT22;17497;51.476;7.770;2023-03-14T07:15:44;9.00;99.90
30764;DHT22;17497;51.476;7.770;2023-03-14T07:18:11;9.00;99.90
30764;DHT22;17497;51.476;7.770;2023-03-14T07:20:38;9.10;99.90
30764;DHT22;17497;51.476;7.770;2023-03-14T07:23:04;9.20;99.90
30764;DHT22;17497;51.476;7.770;2023-03-14T07:25:32;9.20;99.90
30764;DHT22;17497;51.476;7.770;2023-03-14T07:27:58;9.20;99.90
30764;DHT22;17497;51.476;7.770;2023-03-14T07:30:25;9.10;99.90
30764;DHT22;17497;51.476;7.770;2023-03-14T07:32:52;9.10;99.90
30764;DHT22;17497;51.476;7.770;2023-03-14T07:35:19;9.00;99.90
30764;DHT22;17497;51.476;7.770;2023-03-14T07:37:45;9.00;99.90
30764;DHT22;17497;51.476;7.770;2023-03-14T07:40:12;9.00;99.90
30764;DHT22;17497;51.476;7.770;2023-03-14T07:42:42;9.10;99.90
30764;DHT22;17497;51.476;7.770;2023-03-14T07:45:09;9.10;99.90
30764;DHT22;17497;51.476;7.770;2023-03-14T07:47:37;9.10;99.90
30764;DHT22;17497;51.476;7.770;2023-03-14T07:50:04;9.10;99.90
30764;DHT22;17497;51.476;7.770;2023-03-14T07:52:31;9.20;99.90
30764;DHT22;17497;51.476;7.770;2023-03-14T07:54:58;9.10;99.90
30764;DHT22;17497;51.476;7.770;2023-03-14T07:57:25;9.20;99.90
30764;DHT22;17497;51.476;7.770;2023-03-14T07:59:52;9.20;99.90
30764;DHT22;17497;51.476;7.770;2023-03-14T08:02:19;9.30;99.90
30764;DHT22;17497;51.476;7.770;2023-03-14T08:04:48;9.30;99.90
30764;DHT22;17497;51.476;7.770;2023-03-14T08:07:15;9.40;99.90
30764;DHT22;17497;51.476;7.770;2023-03-14T08:09:42;9.50;99.90
30764;DHT22;17497;51.476;7.770;2023-03-14T08:12:08;9.50;99.90
30764;DHT22;17497;51.476;7.770;2023-03-14T08:14:35;9.50;99.90
30764;DHT22;17497;51.476;7.770;2023-03-14T08:17:02;9.50;99.90
30764;DHT22;17497;51.476;7.770;2023-03-14T08:19:29;9.50;99.90
30764;DHT22;17497;51.476;7.770;2023-03-14T08:21:55;9.50;99.90
30764;DHT22;17497;51.476;7.770;2023-03-14T08:24:22;9.40;99.90
30764;DHT22;17497;51.476;7.770;2023-03-14T08:26:49;9.40;99.90
30764;DHT22;17497;51.476;7.770;2023-03-14T08:29:15;9.40;99.90
30764;DHT22;17497;51.476;7.770;2023-03-14T08:31:42;9.30;99.90
30764;DHT22;17497;51.476;7.770;2023-03-14T08:34:09;9.40;99.90
30764;DHT22;17497;51.476;7.770;2023-03-14T08:36:36;9.40;99.90
30764;DHT22;17497;51.476;7.770;2023-03-14T08:39:02;9.40;99.90
30764;DHT22;17497;51.476;7.770;2023-03-14T08:41:30;9.50;99.90
30764;DHT22;17497;51.476;7.770;2023-03-14T08:43:57;9.50;99.90
30764;DHT22;17497;51.476;7.770;2023-03-14T08:46:23;9.60;99.90
30764;DHT22;17497;51.476;7.770;2023-03-14T08:48:50;9.60;99.90
30764;DHT22;17497;51.476;7.770;2023-03-14T08:51:17;9.60;99.90
30764;DHT22;17497;51.476;7.770;2023-03-14T08:53:44;9.70;99.90
30764;DHT22;17497;51.476;7.770;2023-03-14T08:56:10;9.70;99.90
30764;DHT22;17497;51.476;7.770;2023-03-14T08:58:37;9.60;99.90
30764;DHT22;17497;51.476;7.770;2023-03-14T09:01:05;9.60;99.90
30764;DHT22;17497;51.476;7.770;2023-03-14T09:03:32;9.70;99.90
30764;DHT22;17497;51.476;7.770;2023-03-14T09:06:05;9.80;99.90
30764;DHT22;17497;51.476;7.770;2023-03-14T09:08:33;9.70;99.90
30764;DHT22;17497;51.476;7.770;2023-03-14T09:11:02;9.70;99.90
30764;DHT22;17497;51.476;7.770;2023-03-14T09:13:29;9.70;99.90
30764;DHT22;17497;51.476;7.770;2023-03-14T09:15:56;9.70;99.90
30764;DHT22;17497;51.476;7.770;2023-03-14T09:18:22;9.70;99.90
30764;DHT22;17497;51.476;7.770;2023-03-14T09:20:49;9.70;99.90
30764;DHT22;17497;51.476;7.770;2023-03-14T09:23:16;9.70;99.90
30764;DHT22;17497;51.476;7.770;2023-03-14T09:25:43;9.70;99.90
30764;DHT22;17497;51.476;7.770;2023-03-14T09:28:10;9.70;99.90
30764;DHT22;17497;51.476;7.770;2023-03-14T09:30:37;9.70;99.90
30764;DHT22;17497;51.476;7.770;2023-03-14T09:33:04;9.70;99.90
30764;DHT22;17497;51.476;7.770;2023-03-14T09:35:30;9.90;99.90
30764;DHT22;17497;51.476;7.770;2023-03-14T09:37:57;10.00;99.90
30764;DHT22;17497;51.476;7.770;2023-03-14T09:40:24;10.10;99.90
30764;DHT22;17497;51.476;7.770;2023-03-14T09:42:51;10.20;99.90
30764;DHT22;17497;51.476;7.770;2023-03-14T09:45:28;10.30;99.90
30764;DHT22;17497;51.476;7.770;2023-03-14T09:47:55;10.30;99.90
30764;DHT22;17497;51.476;7.770;2023-03-14T09:50:25;10.40;99.90
30764;DHT22;17497;51.476;7.770;2023-03-14T09:52:56;10.30;99.90
30764;DHT22;17497;51.476;7.770;2023-03-14T09:55:22;10.20;99.90
30764;DHT22;17497;51.476;7.770;2023-03-14T09:57:49;10.00;99.90
30764;DHT22;17497;51.476;7.770;2023-03-14T10:00:19;10.00;99.90
30764;DHT22;17497;51.476;7.770;2023-03-14T10:02:50;10.00;99.90
30764;DHT22;17497;51.476;7.770;2023-03-14T10:05:18;9.90;99.90
30764;DHT22;17497;51.476;7.770;2023-03-14T10:07:45;9.70;99.90
30764;DHT22;17497;51.476;7.770;2023-03-14T10:10:18;9.40;99.90
30764;DHT22;17497;51.476;7.770;2023-03-14T10:12:46;9.20;99.90
30764;DHT22;17497;51.476;7.770;2023-03-14T10:15:14;8.90;99.90
30764;DHT22;17497;51.476;7.770;2023-03-14T10:17:47;8.80;99.90
30764;DHT22;17497;51.476;7.770;2023-03-14T10:20:36;8.70;99.90
30764;DHT22;17497;51.476;7.770;2023-03-14T10:23:05;8.50;99.90
30764;DHT22;17497;51.476;7.770;2023-03-14T10:25:36;8.50;99.90
30764;DHT22;17497;51.476;7.770;2023-03-14T10:28:03;8.40;99.90
30764;DHT22;17497;51.476;7.770;2023-03-14T10:32:57;8.00;99.90
30764;DHT22;17497;51.476;7.770;2023-03-14T10:35:24;7.80;99.90
30764;DHT22;17497;51.476;7.770;2023-03-14T10:37:58;7.70;99.90
30764;DHT22;17497;51.476;7.770;2023-03-14T10:40:32;7.70;99.90
30764;DHT22;17497;51.476;7.770;2023-03-14T10:43:00;7.70;99.90
30764;DHT22;17497;51.476;7.770;2023-03-14T10:45:36;7.70;99.90
30764;DHT22;17497;51.476;7.770;2023-03-14T10:50:56;7.50;99.90
30764;DHT22;17497;51.476;7.770;2023-03-14T10:53:24;7.50;99.90
30764;DHT22;17497;51.476;7.770;2023-03-14T10:55:53;7.40;99.90
30764;DHT22;17497;51.476;7.770;2023-03-14T10:58:25;7.30;99.90
30764;DHT22;17497;51.476;7.770;2023-03-14T11:00:55;7.30;99.90
30764;DHT22;17497;51.476;7.770;2023-03-14T11:03:24;7.30;99.90
30764;DHT22;17497;51.476;7.770;2023-03-14T11:05:53;7.30;99.90
30764;DHT22;17497;51.476;7.770;2023-03-14T11:08:35;7.30;99.90
30764;DHT22;17497;51.476;7.770;2023-03-14T11:11:12;7.10;99.90
30764;DHT22;17497;51.476;7.770;2023-03-14T11:13:45;7.10;99.90
30764;DHT22;17497;51.476;7.770;2023-03-14T11:24:19;6.70;99.90
30764;DHT22;17497;51.476;7.770;2023-03-14T11:31:43;6.70;99.90
30764;DHT22;17497;51.476;7.770;2023-03-14T11:34:27;6.70;99.90
30764;DHT22;17497;51.476;7.770;2023-03-14T11:36:59;6.80;99.90
30764;DHT22;17497;51.476;7.770;2023-03-14T11:39:29;6.60;99.90
30764;DHT22;17497;51.476;7.770;2023-03-14T11:42:01;6.50;99.90
30764;DHT22;17497;51.476;7.770;2023-03-14T11:44:35;6.30;99.90
30764;DHT22;17497;51.476;7.770;2023-03-14T11:47:07;6.10;99.90
30764;DHT22;17497;51.476;7.770;2023-03-14T11:49:38;6.00;99.90
30764;DHT22;17497;51.476;7.770;2023-03-14T11:52:10;6.00;99.90
30764;DHT22;17497;51.476;7.770;2023-03-14T11:54:41;6.00;99.90
30764;DHT22;17497;51.476;7.770;2023-03-14T11:57:18;6.00;99.90
30764;DHT22;17497;51.476;7.770;2023-03-14T12:02:33;5.60;99.90
30764;DHT22;17497;51.476;7.770;2023-03-14T12:07:39;5.40;99.90
30764;DHT22;17497;51.476;7.770;2023-03-14T12:10:10;5.40;99.90
30764;DHT22;17497;51.476;7.770;2023-03-14T12:12:36;5.40;99.90
30764;DHT22;17497;51.476;7.770;2023-03-14T12:15:03;5.50;99.90
30764;DHT22;17497;51.476;7.770;2023-03-14T12:20:23;5.50;99.90
30764;DHT22;17497;51.476;7.770;2023-03-14T12:22:49;5.60;99.90
30764;DHT22;17497;51.476;7.770;2023-03-14T12:25:20;5.60;99.90
30764;DHT22;17497;51.476;7.770;2023-03-14T12:30:29;5.70;99.90
30764;DHT22;17497;51.476;7.770;2023-03-14T12:38:02;5.60;99.90
30764;DHT22;17497;51.476;7.770;2023-03-14T12:40:31;5.70;99.90
30764;DHT22;17497;51.476;7.770;2023-03-14T12:43:00;5.60;99.90
30764;DHT22;17497;51.476;7.770;2023-03-14T12:45:30;5.60;99.90
30764;DHT22;17497;51.476;7.770;2023-03-14T12:50:46;5.50;99.90
30764;DHT22;17497;51.476;7.770;2023-03-14T12:58:35;5.40;99.90
30764;DHT22;17497;51.476;7.770;2023-03-14T13:01:03;5.50;99.90
30764;DHT22;17497;51.476;7.770;2023-03-14T13:03:38;5.60;99.90
30764;DHT22;17497;51.476;7.770;2023-03-14T13:06:05;5.60;99.90
30764;DHT22;17497;51.476;7.770;2023-03-14T13:08:33;5.70;99.90
30764;DHT22;17497;51.476;7.770;2023-03-14T13:11:01;5.90;99.90
30764;DHT22;17497;51.476;7.770;2023-03-14T13:13:28;6.10;99.90
30764;DHT22;17497;51.476;7.770;2023-03-14T13:15:55;6.20;99.90
30764;DHT22;17497;51.476;7.770;2023-03-14T13:21:05;6.40;99.90
30764;DHT22;17497;51.476;7.770;2023-03-14T13:23:33;6.40;99.90
30764;DHT22;17497;51.476;7.770;2023-03-14T13:26:01;6.40;99.90
30764;DHT22;17497;51.476;7.770;2023-03-14T13:28:28;6.30;99.90
30764;DHT22;17497;51.476;7.770;2023-03-14T13:31:01;6.20;99.90
30764;DHT22;17497;51.476;7.770;2023-03-14T13:33:28;6.20;99.90
30764;DHT22;17497;51.476;7.770;2023-03-14T13:35:56;6.00;99.90
30764;DHT22;17497;51.476;7.770;2023-03-14T13:38:25;5.80;99.90
30764;DHT22;17497;51.476;7.770;2023-03-14T13:40:53;5.70;99.90
30764;DHT22;17497;51.476;7.770;2023-03-14T13:48:17;5.40;99.90
30764;DHT22;17497;51.476;7.770;2023-03-14T13:50:45;5.30;99.90
30764;DHT22;17497;51.476;7.770;2023-03-14T13:53:12;5.20;99.90
30764;DHT22;17497;51.476;7.770;2023-03-14T13:55:38;5.10;99.90
30764;DHT22;17497;51.476;7.770;2023-03-14T13:58:10;5.10;99.90
30764;DHT22;17497;51.476;7.770;2023-03-14T14:00:37;5.20;99.90
30764;DHT22;17497;51.476;7.770;2023-03-14T14:03:04;5.20;99.90
30764;DHT22;17497;51.476;7.770;2023-03-14T14:05:36;5.30;99.90
30764;DHT22;17497;51.476;7.770;2023-03-14T14:08:06;5.20;99.90
30764;DHT22;17497;51.476;7.770;2023-03-14T14:10:33;5.10;99.90
30764;DHT22;17497;51.476;7.770;2023-03-14T14:13:03;5.10;99.90
30764;DHT22;17497;51.476;7.770;2023-03-14T14:15:31;5.10;99.90
30764;DHT22;17497;51.476;7.770;2023-03-14T14:18:03;5.00;99.90
30764;DHT22;17497;51.476;7.770;2023-03-14T14:20:40;5.30;99.90
30764;DHT22;17497;51.476;7.770;2023-03-14T14:23:10;5.40;99.90
30764;DHT22;17497;51.476;7.770;2023-03-14T14:25:37;5.50;99.90
30764;DHT22;17497;51.476;7.770;2023-03-14T14:30:59;5.80;99.90
30764;DHT22;17497;51.476;7.770;2023-03-14T14:33:25;5.80;99.90
30764;DHT22;17497;51.476;7.770;2023-03-14T14:35:56;6.00;99.90
30764;DHT22;17497;51.476;7.770;2023-03-14T14:38:23;6.20;99.90
30764;DHT22;17497;51.476;7.770;2023-03-14T14:40:51;6.30;99.90
30764;DHT22;17497;51.476;7.770;2023-03-14T14:43:20;6.30;99.90
30764;DHT22;17497;51.476;7.770;2023-03-14T14:45:49;6.30;99.90
30764;DHT22;17497;51.476;7.770;2023-03-14T14:48:18;6.30;99.90
30764;DHT22;17497;51.476;7.770;2023-03-14T14:50:49;6.20;99.90
30764;DHT22;17497;51.476;7.770;2023-03-14T14:55:57;6.10;99.90
30764;DHT22;17497;51.476;7.770;2023-03-14T15:00:57;6.10;99.90
30764;DHT22;17497;51.476;7.770;2023-03-14T15:03:26;6.10;99.90
30764;DHT22;17497;51.476;7.770;2023-03-14T15:05:54;6.20;99.90
30764;DHT22;17497;51.476;7.770;2023-03-14T15:08:21;6.10;99.90
30764;DHT22;17497;51.476;7.770;2023-03-14T15:10:48;6.00;99.90
30764;DHT22;17497;51.476;7.770;2023-03-14T15:13:15;6.30;99.90
30764;DHT22;17497;51.476;7.770;2023-03-14T15:15:41;6.60;99.90
30764;DHT22;17497;51.476;7.770;2023-03-14T15:18:15;7.60;99.90
30764;DHT22;17497;51.476;7.770;2023-03-14T15:20:42;8.00;99.90
30764;DHT22;17497;51.476;7.770;2023-03-14T15:23:15;8.50;99.90
30764;DHT22;17497;51.476;7.770;2023-03-14T15:25:42;8.50;99.90
30764;DHT22;17497;51.476;7.770;2023-03-14T15:28:22;8.40;99.90
30764;DHT22;17497;51.476;7.770;2023-03-14T15:30:50;8.60;99.90
30764;DHT22;17497;51.476;7.770;2023-03-14T15:33:17;9.20;99.90
30764;DHT22;17497;51.476;7.770;2023-03-14T15:35:44;9.50;99.90
30764;DHT22;17497;51.476;7.770;2023-03-14T15:38:20;10.00;99.90
30764;DHT22;17497;51.476;7.770;2023-03-14T15:40:49;10.30;99.90
30764;DHT22;17497;51.476;7.770;2023-03-14T15:43:16;10.40;99.90
30764;DHT22;17497;51.476;7.770;2023-03-14T15:45:43;10.50;99.90
30764;DHT22;17497;51.476;7.770;2023-03-14T15:48:17;10.00;99.90
30764;DHT22;17497;51.476;7.770;2023-03-14T15:50:47;9.40;99.90
30764;DHT22;17497;51.476;7.770;2023-03-14T15:53:14;9.20;99.90
30764;DHT22;17497;51.476;7.770;2023-03-14T15:55:41;8.70;99.90
30764;DHT22;17497;51.476;7.770;2023-03-14T15:58:15;8.30;99.90
30764;DHT22;17497;51.476;7.770;2023-03-14T16:00:44;8.10;99.90
30764;DHT22;17497;51.476;7.770;2023-03-14T16:03:11;8.10;99.90
30764;DHT22;17497;51.476;7.770;2023-03-14T16:05:38;8.10;99.90
30764;DHT22;17497;51.476;7.770;2023-03-14T16:08:06;7.90;99.90
30764;DHT22;17497;51.476;7.770;2023-03-14T16:10:33;7.90;99.90
30764;DHT22;17497;51.476;7.770;2023-03-14T16:12:59;8.10;99.90
30764;DHT22;17497;51.476;7.770;2023-03-14T16:15:26;8.10;99.90
30764;DHT22;17497;51.476;7.770;2023-03-14T16:17:53;8.10;99.90
30764;DHT22;17497;51.476;7.770;2023-03-14T16:20:20;7.80;99.90
30764;DHT22;17497;51.476;7.770;2023-03-14T16:22:47;7.30;99.90
30764;DHT22;17497;51.476;7.770;2023-03-14T16:25:14;7.00;99.90
30764;DHT22;17497;51.476;7.770;2023-03-14T16:27:41;6.90;99.90
30764;DHT22;17497;51.476;7.770;2023-03-14T16:30:10;6.70;99.90
30764;DHT22;17497;51.476;7.770;2023-03-14T16:32:39;6.60;99.90
30764;DHT22;17497;51.476;7.770;2023-03-14T16:35:06;6.50;99.90
30764;DHT22;17497;51.476;7.770;2023-03-14T16:37:32;6.40;99.90
30764;DHT22;17497;51.476;7.770;2023-03-14T16:39:59;6.40;99.90
30764;DHT22;17497;51.476;7.770;2023-03-14T16:42:46;6.40;99.90
30764;DHT22;17497;51.476;7.770;2023-03-14T16:45:32;6.40;99.90
30764;DHT22;17497;51.476;7.770;2023-03-14T16:48:01;6.30;99.90
30764;DHT22;17497;51.476;7.770;2023-03-14T16:50:28;6.40;99.90
30764;DHT22;17497;51.476;7.770;2023-03-14T16:52:55;6.40;99.90
30764;DHT22;17497;51.476;7.770;2023-03-14T16:55:22;6.40;99.90